FDX1420 KMEM-KDEN
Flight info
| Callsign | FDX1420 |
|---|---|
| Flight time | 2h 7m |
| Altitude | 32000 |
| Route | NIKEI5 INAYO RZC PER GCK KIISS CLASH5 |
| Aircraft | MD11/H-SDE1E2E3FGHIJ2J3J4J5M1RWXY/LB1D1 |
Departure
| Time | 2026-05-06 20:21 |
|---|---|
| Airport | Memphis International Airport (KMEM) |
Arrival
| Time | 2026-05-06 22:28 |
|---|---|
| Airport | Denver International Airport (KDEN) |
| Time | Latitude | Longitude | Altitude | Speed | Heading |
|---|---|---|---|---|---|
| 2026-05-06 20:01 | 35.06211 | -89.98616 | 338 ft | 0 kts | 271° |
| 2026-05-06 20:06 | 35.06211 | -89.98610 | 333 ft | 3 kts | 271° |
| 2026-05-06 20:06 | 35.06210 | -89.98578 | 334 ft | 4 kts | 271° |
| 2026-05-06 20:07 | 35.06209 | -89.98552 | 334 ft | 4 kts | 262° |
| 2026-05-06 20:07 | 35.06213 | -89.98533 | 333 ft | 4 kts | 207° |
| 2026-05-06 20:07 | 35.06234 | -89.98527 | 333 ft | 4 kts | 182° |
| 2026-05-06 20:07 | 35.06253 | -89.98526 | 335 ft | 0 kts | 182° |
| 2026-05-06 20:13 | 35.06252 | -89.98526 | 338 ft | 1 kts | 182° |
| 2026-05-06 20:13 | 35.06232 | -89.98527 | 334 ft | 5 kts | 182° |
| 2026-05-06 20:14 | 35.06181 | -89.98529 | 333 ft | 9 kts | 182° |
| 2026-05-06 20:14 | 35.06100 | -89.98528 | 335 ft | 14 kts | 176° |
| 2026-05-06 20:14 | 35.05991 | -89.98516 | 335 ft | 18 kts | 174° |
| 2026-05-06 20:14 | 35.05852 | -89.98506 | 334 ft | 22 kts | 179° |
| 2026-05-06 20:15 | 35.05685 | -89.98507 | 335 ft | 25 kts | 180° |
| 2026-05-06 20:15 | 35.05497 | -89.98509 | 335 ft | 29 kts | 180° |
| 2026-05-06 20:15 | 35.05289 | -89.98511 | 333 ft | 30 kts | 180° |
| 2026-05-06 20:15 | 35.05089 | -89.98513 | 335 ft | 28 kts | 180° |
| 2026-05-06 20:16 | 35.04902 | -89.98513 | 334 ft | 26 kts | 179° |
| 2026-05-06 20:16 | 35.04725 | -89.98509 | 336 ft | 25 kts | 179° |
| 2026-05-06 20:16 | 35.04547 | -89.98506 | 335 ft | 27 kts | 179° |
| 2026-05-06 20:16 | 35.04348 | -89.98502 | 335 ft | 29 kts | 179° |
| 2026-05-06 20:17 | 35.04140 | -89.98497 | 335 ft | 30 kts | 179° |
| 2026-05-06 20:17 | 35.03927 | -89.98492 | 335 ft | 31 kts | 179° |
| 2026-05-06 20:17 | 35.03712 | -89.98487 | 335 ft | 31 kts | 177° |
| 2026-05-06 20:17 | 35.03500 | -89.98479 | 336 ft | 30 kts | 179° |
| 2026-05-06 20:18 | 35.03292 | -89.98475 | 335 ft | 30 kts | 179° |
| 2026-05-06 20:18 | 35.03086 | -89.98470 | 334 ft | 29 kts | 179° |
| 2026-05-06 20:18 | 35.02882 | -89.98466 | 335 ft | 29 kts | 179° |
| 2026-05-06 20:18 | 35.02682 | -89.98461 | 335 ft | 29 kts | 179° |
| 2026-05-06 20:19 | 35.02489 | -89.98456 | 335 ft | 25 kts | 179° |
| 2026-05-06 20:19 | 35.02412 | -89.98485 | 334 ft | 7 kts | 247° |
| 2026-05-06 20:19 | 35.02406 | -89.98545 | 338 ft | 9 kts | 268° |
| 2026-05-06 20:19 | 35.02404 | -89.98638 | 337 ft | 13 kts | 270° |
| 2026-05-06 20:20 | 35.02432 | -89.98683 | 335 ft | 6 kts | 339° |
| 2026-05-06 20:20 | 35.02556 | -89.98694 | 334 ft | 45 kts | 359° |
| 2026-05-06 20:20 | 35.03161 | -89.98705 | 336 ft | 125 kts | 359° |
| 2026-05-06 20:20 | 35.04230 | -89.98720 | 460 ft | 171 kts | 358° |
| 2026-05-06 20:21 | 35.05391 | -89.98757 | 1439 ft | 165 kts | 359° |
| 2026-05-06 20:21 | 35.06522 | -89.98831 | 2388 ft | 160 kts | 356° |
| 2026-05-06 20:21 | 35.07611 | -89.99189 | 3007 ft | 167 kts | 334° |
| 2026-05-06 20:21 | 35.08655 | -89.99894 | 3543 ft | 177 kts | 328° |
| 2026-05-06 20:22 | 35.09804 | -90.00730 | 3647 ft | 209 kts | 328° |
| 2026-05-06 20:22 | 35.11108 | -90.01679 | 3910 ft | 228 kts | 327° |
| 2026-05-06 20:22 | 35.12541 | -90.02774 | 4149 ft | 257 kts | 322° |
| 2026-05-06 20:22 | 35.13740 | -90.04320 | 5215 ft | 247 kts | 300° |
| 2026-05-06 20:23 | 35.14327 | -90.06254 | 6243 ft | 244 kts | 279° |
| 2026-05-06 20:23 | 35.14490 | -90.08328 | 7123 ft | 246 kts | 273° |
| 2026-05-06 20:23 | 35.14565 | -90.10433 | 7932 ft | 250 kts | 271° |
| 2026-05-06 20:23 | 35.14625 | -90.12565 | 8734 ft | 253 kts | 271° |
| 2026-05-06 20:24 | 35.14672 | -90.14729 | 9544 ft | 256 kts | 269° |
| 2026-05-06 20:24 | 35.14701 | -90.16926 | 10191 ft | 266 kts | 269° |
| 2026-05-06 20:24 | 35.14722 | -90.19294 | 10328 ft | 292 kts | 269° |
| 2026-05-06 20:24 | 35.14748 | -90.21882 | 10462 ft | 316 kts | 268° |
| 2026-05-06 20:25 | 35.14776 | -90.24633 | 10813 ft | 329 kts | 268° |
| 2026-05-06 20:25 | 35.14801 | -90.27434 | 11513 ft | 331 kts | 267° |
| 2026-05-06 20:25 | 35.14895 | -90.30255 | 12223 ft | 334 kts | 270° |
| 2026-05-06 20:25 | 35.15080 | -90.33090 | 12985 ft | 335 kts | 270° |
| 2026-05-06 20:26 | 35.15291 | -90.35932 | 13675 ft | 337 kts | 270° |
| 2026-05-06 20:26 | 35.15508 | -90.38782 | 14310 ft | 338 kts | 269° |
| 2026-05-06 20:26 | 35.15724 | -90.41643 | 14951 ft | 337 kts | 269° |
| 2026-05-06 20:26 | 35.15938 | -90.44492 | 15602 ft | 337 kts | 269° |
| 2026-05-06 20:27 | 35.16142 | -90.47345 | 16237 ft | 337 kts | 269° |
| 2026-05-06 20:27 | 35.16349 | -90.50194 | 16884 ft | 336 kts | 269° |
| 2026-05-06 20:27 | 35.16561 | -90.53043 | 17482 ft | 337 kts | 270° |
| 2026-05-06 20:27 | 35.16778 | -90.55895 | 18094 ft | 337 kts | 270° |
| 2026-05-06 20:28 | 35.16991 | -90.58749 | 18661 ft | 337 kts | 270° |
| 2026-05-06 20:28 | 35.17201 | -90.61610 | 19141 ft | 339 kts | 270° |
| 2026-05-06 20:28 | 35.17410 | -90.64489 | 19586 ft | 341 kts | 270° |
| 2026-05-06 20:28 | 35.17618 | -90.67386 | 20030 ft | 344 kts | 270° |
| 2026-05-06 20:29 | 35.17826 | -90.70305 | 20459 ft | 346 kts | 270° |
| 2026-05-06 20:29 | 35.18024 | -90.73245 | 20892 ft | 348 kts | 269° |
| 2026-05-06 20:29 | 35.18131 | -90.76196 | 21383 ft | 349 kts | 268° |
| 2026-05-06 20:29 | 35.18184 | -90.79169 | 21907 ft | 351 kts | 267° |
| 2026-05-06 20:30 | 35.18224 | -90.82171 | 22404 ft | 355 kts | 267° |
| 2026-05-06 20:30 | 35.18304 | -90.88247 | 23342 ft | 360 kts | 267° |
| 2026-05-06 20:30 | 35.18348 | -90.91322 | 23792 ft | 364 kts | 268° |
| 2026-05-06 20:31 | 35.18394 | -90.94426 | 24209 ft | 366 kts | 268° |
| 2026-05-06 20:31 | 35.18456 | -90.97545 | 24593 ft | 369 kts | 269° |
| 2026-05-06 20:31 | 35.18852 | -91.00626 | 25028 ft | 377 kts | 279° |
| 2026-05-06 20:31 | 35.19731 | -91.03733 | 25465 ft | 386 kts | 285° |
| 2026-05-06 20:32 | 35.20782 | -91.06725 | 25896 ft | 390 kts | 287° |
| 2026-05-06 20:32 | 35.21908 | -91.09754 | 26344 ft | 393 kts | 287° |
| 2026-05-06 20:32 | 35.23044 | -91.12804 | 26807 ft | 395 kts | 287° |
| 2026-05-06 20:32 | 35.24173 | -91.15877 | 27260 ft | 397 kts | 286° |
| 2026-05-06 20:33 | 35.25290 | -91.18958 | 27807 ft | 396 kts | 285° |
| 2026-05-06 20:33 | 35.26397 | -91.22047 | 28218 ft | 397 kts | 285° |
| 2026-05-06 20:33 | 35.27500 | -91.25154 | 28621 ft | 399 kts | 285° |
| 2026-05-06 20:33 | 35.28606 | -91.28281 | 29017 ft | 401 kts | 285° |
| 2026-05-06 20:34 | 35.29716 | -91.31426 | 29408 ft | 403 kts | 285° |
| 2026-05-06 20:34 | 35.30828 | -91.34583 | 29745 ft | 405 kts | 285° |
| 2026-05-06 20:34 | 35.31935 | -91.37727 | 29951 ft | 407 kts | 285° |
| 2026-05-06 20:34 | 35.33058 | -91.40919 | 30126 ft | 408 kts | 285° |
| 2026-05-06 20:35 | 35.34182 | -91.44114 | 30242 ft | 408 kts | 285° |
| 2026-05-06 20:35 | 35.35304 | -91.47305 | 30349 ft | 408 kts | 284° |
| 2026-05-06 20:35 | 35.36425 | -91.50495 | 30482 ft | 407 kts | 284° |
| 2026-05-06 20:35 | 35.37541 | -91.53676 | 30603 ft | 406 kts | 284° |
| 2026-05-06 20:36 | 35.38654 | -91.56855 | 30728 ft | 405 kts | 284° |
| 2026-05-06 20:36 | 35.39763 | -91.60025 | 30849 ft | 404 kts | 284° |
| 2026-05-06 20:36 | 35.40868 | -91.63184 | 30967 ft | 403 kts | 284° |
| 2026-05-06 20:36 | 35.41969 | -91.66338 | 31085 ft | 401 kts | 284° |
| 2026-05-06 20:37 | 35.43065 | -91.69483 | 31200 ft | 400 kts | 284° |
| 2026-05-06 20:37 | 35.44155 | -91.72613 | 31321 ft | 399 kts | 284° |
| 2026-05-06 20:37 | 35.45244 | -91.75740 | 31442 ft | 398 kts | 283° |
| 2026-05-06 20:37 | 35.46328 | -91.78861 | 31565 ft | 397 kts | 283° |
| 2026-05-06 20:38 | 35.47407 | -91.81967 | 31685 ft | 396 kts | 283° |
| 2026-05-06 20:38 | 35.48484 | -91.85073 | 31815 ft | 394 kts | 283° |
| 2026-05-06 20:38 | 35.49550 | -91.88148 | 31996 ft | 391 kts | 283° |
| 2026-05-06 20:39 | 35.51675 | -91.94318 | 32028 ft | 392 kts | 282° |
| 2026-05-06 20:39 | 35.53779 | -92.00481 | 32028 ft | 392 kts | 282° |
| 2026-05-06 20:40 | 35.55891 | -92.06651 | 32024 ft | 392 kts | 282° |
| 2026-05-06 20:40 | 35.58008 | -92.12817 | 32017 ft | 392 kts | 282° |
| 2026-05-06 20:41 | 35.60126 | -92.18990 | 32013 ft | 392 kts | 282° |
| 2026-05-06 20:41 | 35.62238 | -92.25155 | 32008 ft | 391 kts | 282° |
| 2026-05-06 20:42 | 35.64345 | -92.31318 | 32010 ft | 391 kts | 282° |
| 2026-05-06 20:42 | 35.66448 | -92.37483 | 32003 ft | 391 kts | 282° |
| 2026-05-06 20:43 | 35.68195 | -92.42612 | 32003 ft | 391 kts | 282° |
| 2026-05-06 20:43 | 35.70294 | -92.48788 | 32004 ft | 391 kts | 282° |
| 2026-05-06 20:44 | 35.72390 | -92.54967 | 32006 ft | 391 kts | 282° |
| 2026-05-06 20:44 | 35.74478 | -92.61130 | 32012 ft | 388 kts | 282° |
| 2026-05-06 20:45 | 35.76549 | -92.67261 | 32030 ft | 388 kts | 282° |
| 2026-05-06 20:45 | 35.78617 | -92.73397 | 32017 ft | 387 kts | 281° |
| 2026-05-06 20:46 | 35.80678 | -92.79524 | 32013 ft | 387 kts | 281° |
| 2026-05-06 20:46 | 35.82736 | -92.85660 | 32013 ft | 388 kts | 281° |
| 2026-05-06 20:47 | 35.84782 | -92.91808 | 32021 ft | 387 kts | 281° |
| 2026-05-06 20:47 | 35.86813 | -92.97949 | 32025 ft | 387 kts | 281° |
| 2026-05-06 20:48 | 35.88855 | -93.04096 | 32024 ft | 388 kts | 281° |
| 2026-05-06 20:48 | 35.90898 | -93.10236 | 32020 ft | 387 kts | 281° |
| 2026-05-06 20:49 | 35.92937 | -93.16373 | 32025 ft | 387 kts | 281° |
| 2026-05-06 20:49 | 35.94951 | -93.22446 | 32028 ft | 386 kts | 281° |
| 2026-05-06 20:50 | 35.96983 | -93.28583 | 32028 ft | 386 kts | 281° |
| 2026-05-06 20:50 | 35.99011 | -93.34725 | 32024 ft | 386 kts | 281° |
| 2026-05-06 20:51 | 36.01037 | -93.40870 | 32029 ft | 387 kts | 281° |
| 2026-05-06 20:51 | 36.03064 | -93.47034 | 32021 ft | 387 kts | 281° |
| 2026-05-06 20:52 | 36.05087 | -93.53194 | 32022 ft | 386 kts | 281° |
| 2026-05-06 20:52 | 36.07103 | -93.59348 | 32021 ft | 386 kts | 281° |
| 2026-05-06 20:53 | 36.09117 | -93.65509 | 32026 ft | 386 kts | 281° |
| 2026-05-06 20:53 | 36.11124 | -93.71659 | 32026 ft | 386 kts | 281° |
| 2026-05-06 20:54 | 36.13128 | -93.77820 | 32029 ft | 386 kts | 281° |
| 2026-05-06 20:54 | 36.15128 | -93.83985 | 32029 ft | 386 kts | 280° |
| 2026-05-06 20:55 | 36.17089 | -93.90113 | 32035 ft | 386 kts | 280° |
| 2026-05-06 20:55 | 36.19068 | -93.96280 | 32062 ft | 385 kts | 280° |
| 2026-05-06 20:56 | 36.21048 | -94.02420 | 32049 ft | 383 kts | 280° |
| 2026-05-06 20:56 | 36.23020 | -94.08546 | 32039 ft | 383 kts | 280° |
| 2026-05-06 20:57 | 36.24990 | -94.14680 | 32014 ft | 383 kts | 280° |
| 2026-05-06 20:57 | 36.26471 | -94.20899 | 32066 ft | 373 kts | 273° |
| 2026-05-06 20:58 | 36.27555 | -94.27158 | 32033 ft | 371 kts | 272° |
| 2026-05-06 20:58 | 36.28619 | -94.33416 | 32037 ft | 371 kts | 272° |
| 2026-05-06 20:59 | 36.29701 | -94.39673 | 32037 ft | 371 kts | 273° |
| 2026-05-06 20:59 | 36.30790 | -94.45927 | 32032 ft | 371 kts | 273° |
| 2026-05-06 21:00 | 36.31880 | -94.52190 | 32034 ft | 371 kts | 272° |
| 2026-05-06 21:00 | 36.32966 | -94.58448 | 32042 ft | 371 kts | 272° |
| 2026-05-06 21:01 | 36.34047 | -94.64702 | 32043 ft | 371 kts | 272° |
| 2026-05-06 21:01 | 36.35127 | -94.70964 | 32034 ft | 371 kts | 272° |
| 2026-05-06 21:02 | 36.36202 | -94.77221 | 32016 ft | 371 kts | 272° |
| 2026-05-06 21:02 | 36.37275 | -94.83487 | 32030 ft | 371 kts | 272° |
| 2026-05-06 21:03 | 36.38344 | -94.89751 | 32029 ft | 371 kts | 272° |
| 2026-05-06 21:03 | 36.39411 | -94.96022 | 32041 ft | 371 kts | 272° |
| 2026-05-06 21:04 | 36.40471 | -95.02270 | 32034 ft | 369 kts | 272° |
| 2026-05-06 21:04 | 36.41518 | -95.08469 | 32028 ft | 368 kts | 272° |
| 2026-05-06 21:05 | 36.42566 | -95.14695 | 32024 ft | 368 kts | 272° |
| 2026-05-06 21:05 | 36.43595 | -95.20921 | 32020 ft | 368 kts | 272° |
| 2026-05-06 21:06 | 36.44614 | -95.27152 | 32028 ft | 368 kts | 272° |
| 2026-05-06 21:06 | 36.45638 | -95.33350 | 32040 ft | 369 kts | 272° |
| 2026-05-06 21:07 | 36.46677 | -95.39621 | 32018 ft | 368 kts | 272° |
| 2026-05-06 21:07 | 36.47703 | -95.45821 | 32017 ft | 369 kts | 272° |
| 2026-05-06 21:08 | 36.48732 | -95.52058 | 32018 ft | 368 kts | 272° |
| 2026-05-06 21:08 | 36.49757 | -95.58291 | 32019 ft | 368 kts | 272° |
| 2026-05-06 21:09 | 36.50780 | -95.64529 | 32024 ft | 368 kts | 272° |
| 2026-05-06 21:09 | 36.51798 | -95.70768 | 32028 ft | 368 kts | 272° |
| 2026-05-06 21:10 | 36.52814 | -95.77010 | 32027 ft | 369 kts | 272° |
| 2026-05-06 21:10 | 36.53827 | -95.83258 | 32030 ft | 369 kts | 272° |
| 2026-05-06 21:11 | 36.54837 | -95.89506 | 32028 ft | 369 kts | 272° |
| 2026-05-06 21:11 | 36.55843 | -95.95755 | 32043 ft | 368 kts | 272° |
| 2026-05-06 21:12 | 36.56846 | -96.02003 | 32045 ft | 368 kts | 272° |
| 2026-05-06 21:12 | 36.57845 | -96.08250 | 32045 ft | 368 kts | 272° |
| 2026-05-06 21:13 | 36.58839 | -96.14484 | 32044 ft | 367 kts | 272° |
| 2026-05-06 21:13 | 36.59812 | -96.20657 | 32047 ft | 364 kts | 272° |
| 2026-05-06 21:14 | 36.60763 | -96.26839 | 32042 ft | 364 kts | 272° |
| 2026-05-06 21:14 | 36.61726 | -96.33030 | 32039 ft | 364 kts | 272° |
| 2026-05-06 21:15 | 36.62694 | -96.39219 | 32031 ft | 364 kts | 272° |
| 2026-05-06 21:15 | 36.63663 | -96.45410 | 32032 ft | 364 kts | 272° |
| 2026-05-06 21:16 | 36.64628 | -96.51595 | 32032 ft | 363 kts | 272° |
| 2026-05-06 21:16 | 36.65588 | -96.57774 | 32028 ft | 363 kts | 272° |
| 2026-05-06 21:17 | 36.66545 | -96.63950 | 32028 ft | 363 kts | 272° |
| 2026-05-06 21:17 | 36.67498 | -96.70130 | 32032 ft | 363 kts | 271° |
| 2026-05-06 21:18 | 36.68448 | -96.76309 | 32035 ft | 363 kts | 271° |
| 2026-05-06 21:18 | 36.69394 | -96.82479 | 32032 ft | 363 kts | 271° |
| 2026-05-06 21:19 | 36.70337 | -96.88657 | 32039 ft | 363 kts | 271° |
| 2026-05-06 21:19 | 36.71271 | -96.94804 | 32039 ft | 363 kts | 271° |
| 2026-05-06 21:20 | 36.72208 | -97.00986 | 32040 ft | 363 kts | 271° |
| 2026-05-06 21:20 | 36.73141 | -97.07161 | 32040 ft | 363 kts | 271° |
| 2026-05-06 21:21 | 36.74255 | -97.13322 | 32041 ft | 371 kts | 277° |
| 2026-05-06 21:21 | 36.76208 | -97.19371 | 32042 ft | 379 kts | 281° |
| 2026-05-06 21:22 | 36.78331 | -97.25338 | 32068 ft | 377 kts | 281° |
| 2026-05-06 21:22 | 36.80450 | -97.31346 | 32033 ft | 375 kts | 281° |
| 2026-05-06 21:23 | 36.82525 | -97.37317 | 32073 ft | 375 kts | 281° |
| 2026-05-06 21:23 | 36.84581 | -97.43264 | 32098 ft | 375 kts | 281° |
| 2026-05-06 21:24 | 36.86646 | -97.49254 | 32097 ft | 375 kts | 281° |
| 2026-05-06 21:24 | 36.88708 | -97.55243 | 32089 ft | 375 kts | 281° |
| 2026-05-06 21:25 | 36.90763 | -97.61227 | 32103 ft | 375 kts | 281° |
| 2026-05-06 21:25 | 36.92815 | -97.67213 | 32094 ft | 375 kts | 281° |
| 2026-05-06 21:26 | 36.94866 | -97.73211 | 32092 ft | 375 kts | 281° |
| 2026-05-06 21:26 | 36.96914 | -97.79206 | 32094 ft | 375 kts | 281° |
| 2026-05-06 21:27 | 36.98957 | -97.85202 | 32109 ft | 374 kts | 280° |
| 2026-05-06 21:27 | 37.00990 | -97.91179 | 32102 ft | 374 kts | 280° |
| 2026-05-06 21:28 | 37.03007 | -97.97126 | 32117 ft | 374 kts | 280° |
| 2026-05-06 21:28 | 37.05035 | -98.03117 | 32102 ft | 374 kts | 280° |
| 2026-05-06 21:29 | 37.07059 | -98.09124 | 32102 ft | 374 kts | 280° |
| 2026-05-06 21:29 | 37.09062 | -98.15143 | 32102 ft | 374 kts | 280° |
| 2026-05-06 21:30 | 37.11073 | -98.21156 | 32102 ft | 374 kts | 280° |
| 2026-05-06 21:30 | 37.13088 | -98.27167 | 32106 ft | 374 kts | 280° |
| 2026-05-06 21:31 | 37.15104 | -98.33186 | 32107 ft | 375 kts | 280° |
| 2026-05-06 21:31 | 37.17122 | -98.39218 | 32113 ft | 376 kts | 280° |
| 2026-05-06 21:32 | 37.19137 | -98.45288 | 32135 ft | 380 kts | 281° |
| 2026-05-06 21:32 | 37.21832 | -98.53475 | 32127 ft | 383 kts | 281° |
| 2026-05-06 21:33 | 37.23901 | -98.59626 | 32130 ft | 383 kts | 281° |
| 2026-05-06 21:33 | 37.25958 | -98.65786 | 32129 ft | 382 kts | 281° |
| 2026-05-06 21:34 | 37.28000 | -98.71947 | 32130 ft | 382 kts | 281° |
| 2026-05-06 21:34 | 37.30034 | -98.78116 | 32135 ft | 385 kts | 281° |
| 2026-05-06 21:35 | 37.32085 | -98.84341 | 32135 ft | 386 kts | 281° |
| 2026-05-06 21:35 | 37.34134 | -98.90570 | 32135 ft | 386 kts | 281° |
| 2026-05-06 21:36 | 37.36180 | -98.96804 | 32138 ft | 386 kts | 281° |
| 2026-05-06 21:36 | 37.38222 | -99.03055 | 32139 ft | 390 kts | 282° |
| 2026-05-06 21:37 | 37.40276 | -99.09440 | 32139 ft | 396 kts | 282° |
| 2026-05-06 21:37 | 37.42344 | -99.15914 | 32143 ft | 401 kts | 282° |
| 2026-05-06 21:38 | 37.44447 | -99.22388 | 32146 ft | 403 kts | 283° |
| 2026-05-06 21:38 | 37.46590 | -99.28942 | 32143 ft | 403 kts | 283° |
| 2026-05-06 21:39 | 37.48697 | -99.35429 | 32149 ft | 403 kts | 283° |
| 2026-05-06 21:39 | 37.50807 | -99.41958 | 32147 ft | 403 kts | 283° |
| 2026-05-06 21:40 | 37.52910 | -99.48493 | 32147 ft | 404 kts | 283° |
| 2026-05-06 21:40 | 37.55011 | -99.55094 | 32151 ft | 406 kts | 283° |
| 2026-05-06 21:41 | 37.57125 | -99.61719 | 32180 ft | 409 kts | 284° |
| 2026-05-06 21:41 | 37.59243 | -99.68416 | 32164 ft | 413 kts | 284° |
| 2026-05-06 21:42 | 37.61416 | -99.75135 | 32163 ft | 413 kts | 284° |
| 2026-05-06 21:42 | 37.63577 | -99.81847 | 32167 ft | 413 kts | 284° |
| 2026-05-06 21:43 | 37.65722 | -99.88578 | 32170 ft | 414 kts | 284° |
| 2026-05-06 21:43 | 37.67864 | -99.95332 | 32174 ft | 415 kts | 284° |
| 2026-05-06 21:44 | 37.69999 | -100.02098 | 32174 ft | 414 kts | 284° |
| 2026-05-06 21:44 | 37.72092 | -100.08824 | 32173 ft | 414 kts | 284° |
| 2026-05-06 21:45 | 37.74207 | -100.15594 | 32170 ft | 414 kts | 284° |
| 2026-05-06 21:45 | 37.76331 | -100.22377 | 32166 ft | 417 kts | 284° |
| 2026-05-06 21:46 | 37.78472 | -100.29219 | 32166 ft | 419 kts | 285° |
| 2026-05-06 21:46 | 37.80616 | -100.36077 | 32165 ft | 419 kts | 284° |
| 2026-05-06 21:47 | 37.82757 | -100.42940 | 32163 ft | 419 kts | 284° |
| 2026-05-06 21:47 | 37.84892 | -100.49805 | 32167 ft | 419 kts | 284° |
| 2026-05-06 21:48 | 37.87021 | -100.56673 | 32167 ft | 419 kts | 284° |
| 2026-05-06 21:48 | 37.89149 | -100.63554 | 32169 ft | 420 kts | 285° |
| 2026-05-06 21:49 | 37.91280 | -100.70452 | 32162 ft | 420 kts | 285° |
| 2026-05-06 21:49 | 37.93651 | -100.77219 | 32165 ft | 424 kts | 289° |
| 2026-05-06 21:50 | 37.96236 | -100.83937 | 32165 ft | 424 kts | 289° |
| 2026-05-06 21:50 | 37.98835 | -100.90652 | 32173 ft | 424 kts | 289° |
| 2026-05-06 21:51 | 38.01418 | -100.97374 | 32177 ft | 424 kts | 289° |
| 2026-05-06 21:51 | 38.03990 | -101.04105 | 32175 ft | 424 kts | 289° |
| 2026-05-06 21:52 | 38.06556 | -101.10838 | 32173 ft | 424 kts | 289° |
| 2026-05-06 21:52 | 38.09120 | -101.17582 | 32174 ft | 424 kts | 289° |
| 2026-05-06 21:53 | 38.11677 | -101.24323 | 32210 ft | 424 kts | 289° |
| 2026-05-06 21:53 | 38.14218 | -101.31039 | 32176 ft | 425 kts | 289° |
| 2026-05-06 21:54 | 38.16781 | -101.37824 | 32182 ft | 426 kts | 289° |
| 2026-05-06 21:54 | 38.19534 | -101.44526 | 32186 ft | 431 kts | 294° |
| 2026-05-06 21:55 | 38.22720 | -101.51002 | 32190 ft | 433 kts | 296° |
| 2026-05-06 21:55 | 38.25978 | -101.57441 | 32185 ft | 433 kts | 295° |
| 2026-05-06 21:56 | 38.29213 | -101.63894 | 32190 ft | 432 kts | 295° |
| 2026-05-06 21:56 | 38.32431 | -101.70363 | 32196 ft | 433 kts | 296° |
| 2026-05-06 21:57 | 38.35652 | -101.76865 | 32192 ft | 434 kts | 296° |
| 2026-05-06 21:57 | 38.38877 | -101.83384 | 32191 ft | 434 kts | 296° |
| 2026-05-06 21:58 | 38.42096 | -101.89902 | 32190 ft | 434 kts | 296° |
| 2026-05-06 21:58 | 38.45310 | -101.96426 | 32188 ft | 434 kts | 296° |
| 2026-05-06 21:59 | 38.48524 | -102.02962 | 32188 ft | 434 kts | 296° |
| 2026-05-06 21:59 | 38.51733 | -102.09503 | 32189 ft | 435 kts | 296° |
| 2026-05-06 22:00 | 38.54944 | -102.16058 | 32189 ft | 435 kts | 296° |
| 2026-05-06 22:00 | 38.58141 | -102.22623 | 32184 ft | 435 kts | 296° |
| 2026-05-06 22:01 | 38.61302 | -102.29152 | 32184 ft | 435 kts | 296° |
| 2026-05-06 22:01 | 38.64493 | -102.35726 | 32181 ft | 435 kts | 296° |
| 2026-05-06 22:02 | 38.67686 | -102.42300 | 32176 ft | 435 kts | 297° |
| 2026-05-06 22:02 | 38.70872 | -102.48930 | 32183 ft | 439 kts | 297° |
| 2026-05-06 22:03 | 38.74088 | -102.55576 | 32176 ft | 439 kts | 297° |
| 2026-05-06 22:03 | 38.77318 | -102.62221 | 32175 ft | 439 kts | 297° |
| 2026-05-06 22:04 | 38.80537 | -102.68881 | 32175 ft | 439 kts | 297° |
| 2026-05-06 22:04 | 38.83731 | -102.75519 | 32176 ft | 439 kts | 297° |
| 2026-05-06 22:05 | 38.86940 | -102.82210 | 32173 ft | 442 kts | 298° |
| 2026-05-06 22:05 | 38.90169 | -102.88983 | 32183 ft | 447 kts | 298° |
| 2026-05-06 22:06 | 38.93426 | -102.95791 | 32172 ft | 448 kts | 298° |
| 2026-05-06 22:06 | 38.96689 | -103.02601 | 32171 ft | 448 kts | 298° |
| 2026-05-06 22:07 | 38.99957 | -103.09383 | 31648 ft | 442 kts | 298° |
| 2026-05-06 22:07 | 39.01568 | -103.12715 | 30866 ft | 437 kts | 298° |
| 2026-05-06 22:07 | 39.03169 | -103.16028 | 30170 ft | 437 kts | 298° |
| 2026-05-06 22:08 | 39.04769 | -103.19361 | 29468 ft | 438 kts | 298° |
| 2026-05-06 22:08 | 39.06362 | -103.22711 | 28840 ft | 439 kts | 299° |
| 2026-05-06 22:08 | 39.07942 | -103.26055 | 28215 ft | 435 kts | 298° |
| 2026-05-06 22:08 | 39.09505 | -103.29368 | 27601 ft | 431 kts | 298° |
| 2026-05-06 22:09 | 39.11059 | -103.32644 | 27021 ft | 426 kts | 298° |
| 2026-05-06 22:09 | 39.12599 | -103.35882 | 26444 ft | 422 kts | 298° |
| 2026-05-06 22:09 | 39.14121 | -103.39086 | 25877 ft | 417 kts | 298° |
| 2026-05-06 22:09 | 39.15625 | -103.42258 | 25315 ft | 413 kts | 298° |
| 2026-05-06 22:10 | 39.17112 | -103.45401 | 24758 ft | 409 kts | 298° |
| 2026-05-06 22:10 | 39.18581 | -103.48510 | 24202 ft | 404 kts | 297° |
| 2026-05-06 22:10 | 39.20034 | -103.51599 | 23639 ft | 402 kts | 298° |
| 2026-05-06 22:10 | 39.21452 | -103.54643 | 23021 ft | 400 kts | 298° |
| 2026-05-06 22:11 | 39.22879 | -103.57704 | 22625 ft | 397 kts | 298° |
| 2026-05-06 22:11 | 39.24300 | -103.60747 | 22407 ft | 395 kts | 300° |
| 2026-05-06 22:11 | 39.25680 | -103.63705 | 22300 ft | 373 kts | 300° |
| 2026-05-06 22:11 | 39.27005 | -103.66548 | 22204 ft | 359 kts | 300° |
| 2026-05-06 22:12 | 39.28311 | -103.69226 | 22115 ft | 356 kts | 302° |
| 2026-05-06 22:12 | 39.29681 | -103.71881 | 22035 ft | 355 kts | 302° |
| 2026-05-06 22:12 | 39.31068 | -103.74517 | 21959 ft | 355 kts | 303° |
| 2026-05-06 22:12 | 39.32457 | -103.77147 | 21873 ft | 354 kts | 303° |
| 2026-05-06 22:13 | 39.33842 | -103.79772 | 21813 ft | 354 kts | 302° |
| 2026-05-06 22:13 | 39.35237 | -103.82421 | 21175 ft | 357 kts | 302° |
| 2026-05-06 22:13 | 39.36621 | -103.85056 | 20497 ft | 353 kts | 302° |
| 2026-05-06 22:13 | 39.37984 | -103.87657 | 19994 ft | 345 kts | 303° |
| 2026-05-06 22:14 | 39.39320 | -103.90208 | 19692 ft | 342 kts | 303° |
| 2026-05-06 22:14 | 39.40643 | -103.92735 | 19534 ft | 332 kts | 303° |
| 2026-05-06 22:14 | 39.41908 | -103.95156 | 19349 ft | 318 kts | 304° |
| 2026-05-06 22:14 | 39.43106 | -103.97495 | 18965 ft | 310 kts | 301° |
| 2026-05-06 22:15 | 39.43940 | -104.00041 | 18390 ft | 310 kts | 283° |
| 2026-05-06 22:15 | 39.44125 | -104.02822 | 17768 ft | 311 kts | 272° |
| 2026-05-06 22:15 | 39.44057 | -104.05626 | 17178 ft | 311 kts | 270° |
| 2026-05-06 22:15 | 39.43933 | -104.08409 | 16605 ft | 310 kts | 269° |
| 2026-05-06 22:16 | 39.43806 | -104.11188 | 16052 ft | 309 kts | 269° |
| 2026-05-06 22:16 | 39.43687 | -104.13948 | 15494 ft | 304 kts | 269° |
| 2026-05-06 22:16 | 39.43577 | -104.16636 | 14948 ft | 296 kts | 269° |
| 2026-05-06 22:16 | 39.43475 | -104.19308 | 14419 ft | 298 kts | 269° |
| 2026-05-06 22:17 | 39.43376 | -104.21955 | 14043 ft | 292 kts | 269° |
| 2026-05-06 22:17 | 39.43280 | -104.24581 | 13635 ft | 292 kts | 269° |
| 2026-05-06 22:17 | 39.43185 | -104.27190 | 13247 ft | 288 kts | 269° |
| 2026-05-06 22:17 | 39.43088 | -104.29740 | 13035 ft | 278 kts | 269° |
| 2026-05-06 22:18 | 39.42996 | -104.32183 | 12868 ft | 269 kts | 269° |
| 2026-05-06 22:18 | 39.42906 | -104.34596 | 12514 ft | 267 kts | 269° |
| 2026-05-06 22:18 | 39.42818 | -104.36982 | 12135 ft | 265 kts | 269° |
| 2026-05-06 22:18 | 39.42730 | -104.39356 | 11753 ft | 264 kts | 268° |
| 2026-05-06 22:19 | 39.42643 | -104.41724 | 11370 ft | 263 kts | 268° |
| 2026-05-06 22:19 | 39.42560 | -104.44077 | 11085 ft | 260 kts | 268° |
| 2026-05-06 22:19 | 39.42482 | -104.46401 | 10910 ft | 262 kts | 268° |
| 2026-05-06 22:19 | 39.42403 | -104.48752 | 10786 ft | 261 kts | 268° |
| 2026-05-06 22:20 | 39.42453 | -104.51094 | 10657 ft | 261 kts | 282° |
| 2026-05-06 22:20 | 39.43136 | -104.53276 | 10222 ft | 264 kts | 301° |
| 2026-05-06 22:20 | 39.44152 | -104.55250 | 9833 ft | 263 kts | 305° |
| 2026-05-06 22:20 | 39.45218 | -104.57161 | 9432 ft | 261 kts | 306° |
| 2026-05-06 22:21 | 39.46323 | -104.58954 | 9095 ft | 247 kts | 311° |
| 2026-05-06 22:21 | 39.47439 | -104.60556 | 9002 ft | 237 kts | 312° |
| 2026-05-06 22:21 | 39.48176 | -104.61594 | 8990 ft | 236 kts | 313° |
| 2026-05-06 22:21 | 39.49457 | -104.62894 | 8975 ft | 235 kts | 334° |
| 2026-05-06 22:22 | 39.50991 | -104.63639 | 8994 ft | 236 kts | 342° |
| 2026-05-06 22:22 | 39.52568 | -104.64241 | 8979 ft | 237 kts | 347° |
| 2026-05-06 22:22 | 39.54207 | -104.64459 | 8989 ft | 237 kts | 358° |
| 2026-05-06 22:22 | 39.55859 | -104.64486 | 8982 ft | 237 kts | 359° |
| 2026-05-06 22:23 | 39.57512 | -104.64482 | 8970 ft | 238 kts | 359° |
| 2026-05-06 22:23 | 39.59155 | -104.64471 | 8968 ft | 230 kts | 359° |
| 2026-05-06 22:23 | 39.60696 | -104.64456 | 8960 ft | 218 kts | 359° |
| 2026-05-06 22:23 | 39.62207 | -104.64442 | 8964 ft | 217 kts | 359° |
| 2026-05-06 22:24 | 39.63716 | -104.64427 | 8965 ft | 217 kts | 359° |
| 2026-05-06 22:24 | 39.65236 | -104.64410 | 8761 ft | 221 kts | 359° |
| 2026-05-06 22:24 | 39.66752 | -104.64389 | 8313 ft | 213 kts | 359° |
| 2026-05-06 22:24 | 39.68210 | -104.64367 | 7912 ft | 207 kts | 359° |
| 2026-05-06 22:25 | 39.69638 | -104.64348 | 7568 ft | 204 kts | 359° |
| 2026-05-06 22:25 | 39.71030 | -104.64329 | 7187 ft | 195 kts | 360° |
| 2026-05-06 22:25 | 39.72338 | -104.64311 | 6970 ft | 182 kts | 359° |
| 2026-05-06 22:25 | 39.73605 | -104.64294 | 6968 ft | 182 kts | 359° |
| 2026-05-06 22:26 | 39.74867 | -104.64278 | 6991 ft | 181 kts | 359° |
| 2026-05-06 22:26 | 39.76133 | -104.64262 | 6966 ft | 183 kts | 359° |
| 2026-05-06 22:26 | 39.77399 | -104.64246 | 6685 ft | 179 kts | 359° |
| 2026-05-06 22:26 | 39.78649 | -104.64230 | 6406 ft | 179 kts | 360° |
| 2026-05-06 22:27 | 39.79887 | -104.64214 | 6092 ft | 177 kts | 360° |
| 2026-05-06 22:27 | 39.81111 | -104.64198 | 5827 ft | 175 kts | 0° |
| 2026-05-06 22:27 | 39.82309 | -104.64183 | 5579 ft | 174 kts | 0° |
| 2026-05-06 22:27 | 39.83512 | -104.64165 | 5376 ft | 169 kts | 0° |
| 2026-05-06 22:28 | 39.84565 | -104.64149 | 5371 ft | 132 kts | 0° |
| 2026-05-06 22:28 | 39.85220 | -104.64143 | 5370 ft | 58 kts | 0° |
| 2026-05-06 22:28 | 39.85544 | -104.64185 | 5373 ft | 38 kts | 337° |
| 2026-05-06 22:28 | 39.85661 | -104.64285 | 5370 ft | 11 kts | 291° |
| 2026-05-06 22:29 | 39.85635 | -104.64343 | 5370 ft | 7 kts | 202° |
| 2026-05-06 22:29 | 39.85575 | -104.64352 | 5371 ft | 11 kts | 181° |
| 2026-05-06 22:29 | 39.85488 | -104.64353 | 5371 ft | 14 kts | 180° |
| 2026-05-06 22:29 | 39.85379 | -104.64354 | 5371 ft | 17 kts | 180° |
| 2026-05-06 22:30 | 39.85250 | -104.64356 | 5370 ft | 20 kts | 181° |
| 2026-05-06 22:30 | 39.85110 | -104.64359 | 5371 ft | 20 kts | 180° |
| 2026-05-06 22:30 | 39.84975 | -104.64359 | 5371 ft | 18 kts | 180° |
| 2026-05-06 22:30 | 39.84855 | -104.64360 | 5371 ft | 17 kts | 180° |
| 2026-05-06 22:31 | 39.84754 | -104.64362 | 5370 ft | 11 kts | 180° |
| 2026-05-06 22:31 | 39.84660 | -104.64363 | 5371 ft | 14 kts | 180° |
| 2026-05-06 22:31 | 39.84573 | -104.64363 | 5371 ft | 11 kts | 180° |
| 2026-05-06 22:31 | 39.84497 | -104.64364 | 5371 ft | 9 kts | 180° |
| 2026-05-06 22:32 | 39.84422 | -104.64365 | 5371 ft | 13 kts | 181° |
| 2026-05-06 22:32 | 39.84310 | -104.64367 | 5370 ft | 19 kts | 181° |
| 2026-05-06 22:32 | 39.84163 | -104.64369 | 5372 ft | 23 kts | 180° |
| 2026-05-06 22:32 | 39.83996 | -104.64369 | 5371 ft | 25 kts | 180° |
| 2026-05-06 22:33 | 39.83812 | -104.64372 | 5369 ft | 28 kts | 182° |
| 2026-05-06 22:33 | 39.83623 | -104.64379 | 5371 ft | 26 kts | 180° |
| 2026-05-06 22:33 | 39.83447 | -104.64381 | 5370 ft | 24 kts | 180° |
| 2026-05-06 22:33 | 39.83284 | -104.64380 | 5371 ft | 22 kts | 180° |
| 2026-05-06 22:34 | 39.83209 | -104.64433 | 5372 ft | 10 kts | 256° |
| 2026-05-06 22:34 | 39.83207 | -104.64534 | 5374 ft | 13 kts | 270° |
| 2026-05-06 22:34 | 39.83207 | -104.64663 | 5374 ft | 16 kts | 270° |
| 2026-05-06 22:34 | 39.83208 | -104.64820 | 5374 ft | 19 kts | 271° |
| 2026-05-06 22:35 | 39.83211 | -104.65003 | 5374 ft | 22 kts | 270° |
| 2026-05-06 22:35 | 39.83213 | -104.65210 | 5374 ft | 24 kts | 270° |
| 2026-05-06 22:35 | 39.83213 | -104.65440 | 5374 ft | 27 kts | 270° |
| 2026-05-06 22:35 | 39.83216 | -104.65678 | 5370 ft | 24 kts | 271° |
| 2026-05-06 22:36 | 39.83217 | -104.65842 | 5370 ft | 14 kts | 270° |
| 2026-05-06 22:36 | 39.83218 | -104.65984 | 5371 ft | 18 kts | 270° |
| 2026-05-06 22:36 | 39.83219 | -104.66162 | 5371 ft | 21 kts | 271° |
| 2026-05-06 22:36 | 39.83178 | -104.66261 | 5370 ft | 9 kts | 182° |
| 2026-05-06 22:37 | 39.83099 | -104.66263 | 5371 ft | 14 kts | 180° |
| 2026-05-06 22:37 | 39.82982 | -104.66264 | 5371 ft | 19 kts | 181° |
| 2026-05-06 22:37 | 39.82837 | -104.66266 | 5371 ft | 21 kts | 180° |
| 2026-05-06 22:37 | 39.82707 | -104.66279 | 5370 ft | 14 kts | 208° |
| 2026-05-06 22:38 | 39.82697 | -104.66381 | 5369 ft | 13 kts | 298° |
| 2026-05-06 22:38 | 39.82767 | -104.66476 | 5371 ft | 18 kts | 315° |
| 2026-05-06 22:38 | 39.82836 | -104.66633 | 5371 ft | 22 kts | 277° |
| 2026-05-06 22:38 | 39.82839 | -104.66844 | 5370 ft | 24 kts | 270° |
| 2026-05-06 22:39 | 39.82841 | -104.67035 | 5370 ft | 20 kts | 271° |
| 2026-05-06 22:39 | 39.82842 | -104.67230 | 5370 ft | 23 kts | 270° |
| 2026-05-06 22:39 | 39.82845 | -104.67453 | 5373 ft | 26 kts | 270° |
| 2026-05-06 22:39 | 39.82846 | -104.67670 | 5373 ft | 15 kts | 275° |
| 2026-05-06 22:40 | 39.82891 | -104.67733 | 5370 ft | 8 kts | 353° |
| 2026-05-06 22:40 | 39.82956 | -104.67734 | 5371 ft | 11 kts | 2° |
| 2026-05-06 22:40 | 39.83004 | -104.67675 | 5370 ft | 11 kts | 77° |
| 2026-05-06 22:40 | 39.83006 | -104.67567 | 5371 ft | 14 kts | 90° |
| 2026-05-06 22:41 | 39.83044 | -104.67500 | 5373 ft | 4 kts | 14° |
| 2026-05-06 22:41 | 39.83053 | -104.67500 | 5369 ft | 1 kts | 359° |
| 2026-05-06 22:41 | 39.83074 | -104.67500 | 5371 ft | 5 kts | 359° |
| 2026-05-06 22:42 | 39.83095 | -104.67500 | 5371 ft | 1 kts | 0° |
| 2026-05-06 22:42 | 39.83097 | -104.67500 | 5371 ft | 0 kts | 0° |